createdAt,value
2018-10-03T00:00:44.843Z,100251.00
2018-10-03T00:03:14.097Z,100259.00
2018-10-03T00:06:07.392Z,100268.00
2018-10-03T00:08:36.703Z,100262.00
2018-10-03T00:11:38.979Z,100268.00
2018-10-03T00:14:22.159Z,100265.00
2018-10-03T00:16:52.897Z,100255.00
2018-10-03T00:19:22.249Z,100243.00
2018-10-03T00:21:51.468Z,100242.00
2018-10-03T00:24:20.655Z,100246.00
2018-10-03T00:26:49.772Z,100242.00
2018-10-03T00:29:21.830Z,100253.00
2018-10-03T00:31:51.038Z,100250.00
2018-10-03T00:34:37.537Z,100252.00
2018-10-03T00:37:06.939Z,100250.00
2018-10-03T00:39:36.081Z,100256.00
2018-10-03T00:42:17.976Z,100261.00
2018-10-03T00:44:54.948Z,100255.00
2018-10-03T00:47:26.971Z,100250.00
2018-10-03T00:49:56.450Z,100238.00
2018-10-03T00:52:25.718Z,100252.00
2018-10-03T00:54:55.592Z,100244.00
2018-10-03T00:57:25.301Z,100253.00
2018-10-03T00:59:54.432Z,100259.00
2018-10-03T01:02:23.588Z,100268.00
2018-10-03T01:04:52.766Z,100266.00
2018-10-03T01:07:21.902Z,100278.00
2018-10-03T01:09:51.002Z,100294.00
2018-10-03T01:12:20.081Z,100284.00
2018-10-03T01:14:49.198Z,100288.00
2018-10-03T01:19:58.770Z,100287.00
2018-10-03T01:22:28.902Z,100292.00
2018-10-03T01:24:58.141Z,100292.00
2018-10-03T01:27:29.306Z,100284.00
2018-10-03T01:30:00.081Z,100286.00
2018-10-03T01:32:29.778Z,100284.00
2018-10-03T01:35:02.819Z,100297.00
2018-10-03T01:37:34.930Z,100301.00
2018-10-03T01:40:04.783Z,100273.00
2018-10-03T01:42:34.003Z,100302.00
2018-10-03T01:45:03.148Z,100291.00
2018-10-03T01:47:32.282Z,100290.00
2018-10-03T01:52:44.130Z,100283.00
2018-10-03T01:55:18.030Z,100287.00
2018-10-03T01:57:48.158Z,100286.00
2018-10-03T02:00:17.717Z,100288.00
2018-10-03T02:02:47.244Z,100280.00
2018-10-03T02:05:16.488Z,100280.00
2018-10-03T02:07:45.710Z,100271.00
2018-10-03T02:10:14.890Z,100276.00
2018-10-03T02:12:44.137Z,100265.00
2018-10-03T02:15:13.500Z,100281.00
2018-10-03T02:17:42.937Z,100287.00
2018-10-03T02:20:12.313Z,100302.00
2018-10-03T02:22:41.655Z,100318.00
2018-10-03T02:25:10.875Z,100335.00
2018-10-03T02:27:41.192Z,100334.00
2018-10-03T02:30:11.709Z,100347.00
2018-10-03T02:32:41.154Z,100370.00
2018-10-03T02:35:14.265Z,100357.00
2018-10-03T02:37:43.466Z,100346.00
2018-10-03T02:40:12.723Z,100346.00
2018-10-03T02:42:49.537Z,100347.00
2018-10-03T02:45:44.885Z,100389.00
2018-10-03T02:48:14.219Z,100351.00
2018-10-03T02:50:44.839Z,100345.00
2018-10-03T02:53:14.007Z,100378.00
2018-10-03T02:56:15.603Z,100368.00
2018-10-03T02:58:44.819Z,100364.00
2018-10-03T03:01:13.904Z,100359.00
2018-10-03T03:03:48.303Z,100365.00
2018-10-03T03:06:19.751Z,100358.00
2018-10-03T03:08:52.615Z,100360.00
2018-10-03T03:11:21.939Z,100380.00
2018-10-03T03:16:47.393Z,100366.00
2018-10-03T03:19:17.491Z,100376.00
2018-10-03T03:21:46.651Z,100384.00
2018-10-03T03:24:16.901Z,100381.00
2018-10-03T03:26:47.529Z,100379.00
2018-10-03T03:29:16.819Z,100380.00
2018-10-03T03:31:45.963Z,100372.00
2018-10-03T03:34:16.774Z,100354.00
2018-10-03T03:36:50.187Z,100388.00
2018-10-03T03:39:19.408Z,100390.00
2018-10-03T03:41:59.894Z,100393.00
2018-10-03T03:44:29.309Z,100386.00
2018-10-03T03:46:58.867Z,100396.00
2018-10-03T03:49:28.874Z,100394.00
2018-10-03T03:52:00.120Z,100400.00
2018-10-03T03:54:29.440Z,100414.00
2018-10-03T03:56:59.214Z,100404.00
2018-10-03T03:59:28.732Z,100402.00
2018-10-03T04:01:58.085Z,100416.00
2018-10-03T04:04:27.584Z,100409.00
2018-10-03T04:06:57.113Z,100428.00
2018-10-03T04:09:30.004Z,100434.00
2018-10-03T04:12:38.008Z,100431.00
2018-10-03T04:15:30.358Z,100428.00
2018-10-03T04:18:00.507Z,100427.00
2018-10-03T04:20:31.644Z,100436.00
2018-10-03T04:23:01.608Z,100428.00
2018-10-03T04:28:06.724Z,100447.00
2018-10-03T04:30:36.034Z,100442.00
2018-10-03T04:35:56.284Z,100452.00
2018-10-03T04:38:25.437Z,100449.00
2018-10-03T04:40:54.883Z,100456.00
2018-10-03T04:43:24.500Z,100455.00
2018-10-03T04:46:05.124Z,100466.00
2018-10-03T04:48:34.350Z,100476.00
2018-10-03T04:51:04.449Z,100469.00
2018-10-03T04:53:33.639Z,100476.00
2018-10-03T04:56:02.790Z,100483.00
2018-10-03T04:58:31.887Z,100477.00
2018-10-03T05:01:00.968Z,100476.00
2018-10-03T05:03:30.068Z,100482.00
2018-10-03T05:05:59.239Z,100491.00
2018-10-03T05:11:39.876Z,100487.00
2018-10-03T05:14:09.308Z,100497.00
2018-10-03T05:16:38.394Z,100504.00
2018-10-03T05:19:11.263Z,100512.00
2018-10-03T05:21:40.475Z,100515.00
2018-10-03T05:24:10.892Z,100511.00
2018-10-03T05:26:40.078Z,100521.00
2018-10-03T05:29:13.030Z,100535.00
2018-10-03T05:32:46.048Z,100539.00
2018-10-03T05:38:21.990Z,100544.00
2018-10-03T05:40:51.084Z,100554.00
2018-10-03T05:43:22.424Z,100554.00
2018-10-03T05:45:51.532Z,100564.00
2018-10-03T05:48:20.647Z,100571.00
2018-10-03T05:50:49.828Z,100571.00
2018-10-03T05:53:19.012Z,100586.00
2018-10-03T05:55:48.267Z,100578.00
2018-10-03T05:58:18.222Z,100582.00
2018-10-03T06:00:47.314Z,100580.00
2018-10-03T06:03:16.383Z,100582.00
2018-10-03T06:05:45.469Z,100591.00
2018-10-03T06:08:14.529Z,100602.00
2018-10-03T06:10:43.655Z,100599.00
2018-10-03T06:13:12.686Z,100614.00
2018-10-03T06:15:42.082Z,100612.00
2018-10-03T06:18:11.721Z,100609.00
2018-10-03T06:20:48.208Z,100618.00
2018-10-03T06:23:18.862Z,100626.00
2018-10-03T06:25:48.175Z,100630.00
2018-10-03T06:28:20.129Z,100637.00
2018-10-03T06:30:49.380Z,100643.00
2018-10-03T06:33:18.493Z,100655.00
2018-10-03T06:35:47.563Z,100659.00
2018-10-03T06:38:17.530Z,100657.00
2018-10-03T06:40:46.598Z,100655.00
2018-10-03T06:43:17.263Z,100666.00
2018-10-03T06:45:52.966Z,100660.00
2018-10-03T06:48:23.756Z,100661.00
2018-10-03T06:50:54.178Z,100665.00
2018-10-03T06:53:23.399Z,100682.00
2018-10-03T06:55:52.502Z,100684.00
2018-10-03T06:58:21.800Z,100697.00
2018-10-03T07:00:50.958Z,100712.00
2018-10-03T07:03:20.173Z,100706.00
2018-10-03T07:05:55.261Z,100716.00
2018-10-03T07:08:25.214Z,100723.00
2018-10-03T07:10:55.288Z,100729.00
2018-10-03T07:13:25.838Z,100732.00
2018-10-03T07:15:54.975Z,100743.00
2018-10-03T07:18:25.129Z,100746.00
2018-10-03T07:20:54.770Z,100746.00
2018-10-03T07:23:23.983Z,100753.00
2018-10-03T07:25:55.677Z,100760.00
2018-10-03T07:28:26.514Z,100768.00
2018-10-03T07:30:55.689Z,100764.00
2018-10-03T07:33:26.621Z,100772.00
2018-10-03T07:35:55.778Z,100780.00
2018-10-03T07:38:25.012Z,100793.00
2018-10-03T07:43:43.560Z,100789.00
2018-10-03T07:46:13.347Z,100797.00
2018-10-03T07:48:42.709Z,100797.00
2018-10-03T07:51:31.753Z,100798.00
2018-10-03T07:54:01.285Z,100809.00
2018-10-03T07:56:34.650Z,100812.00
2018-10-03T07:59:06.251Z,100818.00
2018-10-03T08:01:37.509Z,100824.00
2018-10-03T08:04:14.625Z,100836.00
2018-10-03T08:07:04.144Z,100843.00
2018-10-03T08:09:34.022Z,100848.00
2018-10-03T08:12:06.907Z,100849.00
2018-10-03T08:14:36.577Z,100858.00
2018-10-03T08:17:06.383Z,100864.00
2018-10-03T08:19:42.209Z,100861.00
2018-10-03T08:22:11.690Z,100871.00
2018-10-03T08:24:41.102Z,100872.00
2018-10-03T08:30:08.213Z,100881.00
2018-10-03T08:32:44.510Z,100883.00
2018-10-03T08:35:37.198Z,100891.00
2018-10-03T08:38:06.648Z,100898.00
2018-10-03T08:40:35.954Z,100899.00
2018-10-03T08:43:05.134Z,100900.00
2018-10-03T08:45:34.405Z,100904.00
2018-10-03T08:48:03.560Z,100900.00
2018-10-03T08:50:33.104Z,100904.00
2018-10-03T08:53:02.471Z,100914.00
2018-10-03T08:55:31.707Z,100908.00
2018-10-03T08:58:01.948Z,100935.00
2018-10-03T09:00:31.012Z,100928.00
2018-10-03T09:03:02.817Z,100932.00
2018-10-03T09:05:32.063Z,100926.00
2018-10-03T09:08:09.962Z,100936.00
2018-10-03T09:10:40.385Z,100935.00
2018-10-03T09:13:09.690Z,100945.00
2018-10-03T09:15:39.042Z,100956.00
2018-10-03T09:18:08.614Z,100964.00
2018-10-03T09:20:43.206Z,100979.00
2018-10-03T09:23:12.322Z,100967.00
2018-10-03T09:25:48.766Z,100971.00
2018-10-03T09:28:17.986Z,100962.00
2018-10-03T09:30:47.068Z,100972.00
2018-10-03T09:33:23.199Z,100955.00
2018-10-03T09:35:52.402Z,100989.00
2018-10-03T09:38:21.778Z,100998.00
2018-10-03T09:40:50.924Z,101001.00
2018-10-03T09:43:20.040Z,101001.00
2018-10-03T09:45:55.237Z,101011.00
2018-10-03T09:48:24.336Z,101017.00
2018-10-03T09:51:22.878Z,101026.00
2018-10-03T09:53:52.122Z,101028.00
2018-10-03T09:56:21.252Z,101022.00
2018-10-03T09:58:54.606Z,101034.00
2018-10-03T10:17:16.918Z,101061.00
2018-10-03T10:26:33.789Z,101086.00
2018-10-03T10:36:23.155Z,101103.00
2018-10-03T10:44:28.470Z,101114.00
2018-10-03T10:46:57.949Z,101109.00
2018-10-03T10:49:30.965Z,101109.00
2018-10-03T10:52:00.427Z,101119.00
2018-10-03T10:54:30.329Z,101107.00
2018-10-03T10:56:59.981Z,101121.00
2018-10-03T10:59:29.220Z,101147.00
2018-10-03T11:01:58.822Z,101145.00
2018-10-03T11:04:28.095Z,101141.00
2018-10-03T11:06:57.341Z,101144.00
2018-10-03T11:09:29.287Z,101144.00
2018-10-03T11:11:58.812Z,101161.00
2018-10-03T11:14:27.970Z,101150.00
2018-10-03T11:16:57.160Z,101169.00
2018-10-03T11:19:27.238Z,101151.00
2018-10-03T11:21:56.371Z,101164.00
2018-10-03T11:24:25.981Z,101180.00
2018-10-03T11:26:55.069Z,101175.00
2018-10-03T11:29:24.379Z,101167.00
2018-10-03T11:31:53.490Z,101171.00
2018-10-03T11:34:23.299Z,101165.00
2018-10-03T11:36:52.911Z,101170.00
2018-10-03T11:39:22.061Z,101184.00
2018-10-03T11:41:51.401Z,101201.00
2018-10-03T11:44:20.525Z,101183.00
2018-10-03T11:46:56.532Z,101186.00
2018-10-03T11:49:26.134Z,101187.00
2018-10-03T11:51:57.945Z,101196.00
2018-10-03T11:54:27.167Z,101184.00
2018-10-03T11:56:56.444Z,101193.00
2018-10-03T11:59:25.713Z,101193.00
2018-10-03T12:02:01.359Z,101200.00
2018-10-03T12:04:30.479Z,101199.00
2018-10-03T12:06:59.707Z,101202.00
2018-10-03T12:09:33.299Z,101208.00
2018-10-03T12:12:02.447Z,101201.00
2018-10-03T12:14:32.364Z,101207.00
2018-10-03T12:19:38.527Z,101220.00
2018-10-03T12:24:46.221Z,101257.00
2018-10-03T12:27:15.392Z,101243.00
2018-10-03T12:29:44.566Z,101256.00
2018-10-03T12:32:31.587Z,101271.00
2018-10-03T12:35:00.881Z,101257.00
2018-10-03T12:37:29.949Z,101257.00
2018-10-03T12:39:59.037Z,101263.00
2018-10-03T12:42:52.883Z,101256.00
2018-10-03T12:45:22.186Z,101262.00
2018-10-03T12:47:51.632Z,101257.00
2018-10-03T12:56:15.055Z,101270.00
2018-10-03T12:58:53.122Z,101276.00
2018-10-03T13:01:22.430Z,101274.00
2018-10-03T13:03:52.387Z,101293.00
2018-10-03T13:06:21.501Z,101279.00
2018-10-03T13:08:50.718Z,101266.00
2018-10-03T13:11:19.817Z,101280.00
2018-10-03T13:13:49.061Z,101276.00
2018-10-03T13:19:35.742Z,101288.00
2018-10-03T13:25:05.542Z,101291.00
2018-10-03T13:27:39.513Z,101299.00
2018-10-03T13:30:16.350Z,101301.00
2018-10-03T13:32:55.698Z,101300.00
2018-10-03T13:35:35.865Z,101304.00
2018-10-03T13:38:17.609Z,101296.00
2018-10-03T13:40:47.939Z,101293.00
2018-10-03T13:43:17.510Z,101296.00
2018-10-03T13:45:46.642Z,101309.00
2018-10-03T13:48:15.762Z,101301.00
2018-10-03T13:50:44.937Z,101295.00
2018-10-03T13:55:57.672Z,101306.00
2018-10-03T13:58:27.031Z,101289.00
2018-10-03T14:00:58.028Z,101307.00
2018-10-03T14:03:41.714Z,101293.00
2018-10-03T14:06:15.577Z,101302.00
2018-10-03T14:08:45.254Z,101290.00
2018-10-03T14:11:15.329Z,101298.00
2018-10-03T14:13:49.644Z,101304.00
2018-10-03T14:16:18.998Z,101306.00
2018-10-03T14:18:48.272Z,101308.00
2018-10-03T14:21:17.792Z,101319.00
2018-10-03T14:23:55.828Z,101315.00
2018-10-03T14:26:25.899Z,101329.00
2018-10-03T14:31:48.922Z,101330.00
2018-10-03T14:34:23.135Z,101324.00
2018-10-03T14:36:52.577Z,101321.00
2018-10-03T14:39:21.716Z,101318.00
2018-10-03T14:41:50.881Z,101347.00
2018-10-03T14:44:20.077Z,101344.00
2018-10-03T14:46:49.612Z,101326.00
2018-10-03T14:49:18.987Z,101327.00
2018-10-03T14:51:48.938Z,101334.00
2018-10-03T14:54:18.108Z,101336.00
2018-10-03T14:56:47.234Z,101355.00
2018-10-03T14:59:16.333Z,101357.00
2018-10-03T15:01:45.712Z,101345.00
2018-10-03T15:04:14.915Z,101364.00
2018-10-03T15:06:44.036Z,101358.00
2018-10-03T15:09:13.247Z,101361.00
2018-10-03T15:11:42.349Z,101361.00
2018-10-03T15:14:11.494Z,101363.00
2018-10-03T15:16:40.615Z,101361.00
2018-10-03T15:19:09.665Z,101358.00
2018-10-03T15:21:38.773Z,101365.00
2018-10-03T15:24:07.931Z,101372.00
2018-10-03T15:26:37.131Z,101363.00
2018-10-03T15:29:06.391Z,101373.00
2018-10-03T15:31:35.525Z,101366.00
2018-10-03T15:34:04.730Z,101376.00
2018-10-03T15:36:33.889Z,101379.00
2018-10-03T15:39:03.142Z,101382.00
2018-10-03T15:41:32.366Z,101383.00
2018-10-03T15:44:01.557Z,101377.00
2018-10-03T15:46:30.898Z,101374.00
2018-10-03T15:49:00.287Z,101379.00
2018-10-03T15:51:29.519Z,101373.00
2018-10-03T15:53:58.659Z,101391.00
2018-10-03T15:56:27.928Z,101396.00
2018-10-03T15:58:57.200Z,101400.00
2018-10-03T16:01:26.285Z,101393.00
2018-10-03T16:03:55.487Z,101405.00
2018-10-03T16:06:24.565Z,101413.00
2018-10-03T16:08:53.643Z,101412.00
2018-10-03T16:11:22.721Z,101410.00
2018-10-03T16:13:51.803Z,101414.00
2018-10-03T16:16:20.977Z,101420.00
2018-10-03T16:18:50.113Z,101422.00
2018-10-03T16:21:19.497Z,101422.00
2018-10-03T16:23:48.578Z,101415.00
2018-10-03T16:26:17.737Z,101416.00
2018-10-03T16:28:50.829Z,101417.00
2018-10-03T16:31:20.031Z,101425.00
2018-10-03T16:33:49.150Z,101425.00
2018-10-03T16:36:18.268Z,101426.00
2018-10-03T16:38:47.466Z,101431.00
2018-10-03T16:41:16.563Z,101438.00
2018-10-03T16:43:45.788Z,101430.00
2018-10-03T16:46:15.119Z,101434.00
2018-10-03T16:48:44.762Z,101434.00
2018-10-03T16:51:13.884Z,101443.00
2018-10-03T16:53:43.024Z,101431.00
2018-10-03T16:56:12.183Z,101430.00
2018-10-03T16:58:41.800Z,101425.00
2018-10-03T17:01:11.033Z,101427.00
2018-10-03T17:03:40.658Z,101423.00
2018-10-03T17:06:09.993Z,101429.00
2018-10-03T17:08:39.308Z,101443.00
2018-10-03T17:11:08.505Z,101438.00
2018-10-03T17:13:53.162Z,101441.00
2018-10-03T17:16:22.452Z,101439.00
2018-10-03T17:18:51.595Z,101454.00
2018-10-03T17:21:20.825Z,101457.00
2018-10-03T17:23:55.115Z,101461.00
2018-10-03T17:29:39.122Z,101453.00
2018-10-03T17:34:44.849Z,101454.00
2018-10-03T17:37:55.441Z,101466.00
2018-10-03T17:40:29.176Z,101455.00
2018-10-03T17:42:59.063Z,101471.00
2018-10-03T17:45:32.700Z,101469.00
2018-10-03T17:48:11.263Z,101477.00
2018-10-03T18:04:19.174Z,101489.00
2018-10-03T18:06:51.836Z,101486.00
2018-10-03T18:09:22.090Z,101490.00
2018-10-03T18:11:51.367Z,101483.00
2018-10-03T18:14:24.784Z,101493.00
2018-10-03T18:16:54.293Z,101492.00
2018-10-03T18:19:23.754Z,101477.00
2018-10-03T18:21:53.160Z,101505.00
2018-10-03T18:27:03.612Z,101494.00
2018-10-03T18:29:32.943Z,101494.00
2018-10-03T18:32:24.574Z,101509.00
2018-10-03T18:34:57.333Z,101499.00
2018-10-03T18:40:08.602Z,101501.00
2018-10-03T18:42:55.326Z,101508.00
2018-10-03T18:45:55.964Z,101508.00
2018-10-03T18:49:05.089Z,101509.00
2018-10-03T18:51:35.156Z,101513.00
2018-10-03T18:54:05.151Z,101509.00
2018-10-03T18:56:34.474Z,101514.00
2018-10-03T18:59:03.702Z,101526.00
2018-10-03T19:01:32.981Z,101563.00
2018-10-03T19:04:31.273Z,101528.00
2018-10-03T19:07:01.722Z,101527.00
2018-10-03T19:12:20.799Z,101528.00
2018-10-03T19:17:57.272Z,101538.00
2018-10-03T19:20:27.004Z,101536.00
2018-10-03T19:23:13.952Z,101536.00
2018-10-03T19:25:43.742Z,101543.00
2018-10-03T19:29:46.522Z,101536.00
2018-10-03T19:32:38.762Z,101477.00
2018-10-03T19:35:10.284Z,101541.00
2018-10-03T19:37:46.346Z,101547.00
2018-10-03T19:40:15.602Z,101544.00
2018-10-03T19:42:44.791Z,101548.00
2018-10-03T19:45:14.202Z,101543.00
2018-10-03T19:47:43.639Z,101542.00
2018-10-03T19:50:36.312Z,101544.00
2018-10-03T19:53:05.675Z,101547.00
2018-10-03T19:55:35.117Z,101544.00
2018-10-03T19:58:08.267Z,101542.00
2018-10-03T20:00:39.561Z,101545.00
2018-10-03T20:03:09.461Z,101546.00
2018-10-03T20:29:16.949Z,101569.00
2018-10-03T20:31:48.321Z,101564.00
2018-10-03T20:37:09.306Z,101561.00
2018-10-03T20:39:42.709Z,101568.00
2018-10-03T20:42:16.111Z,101565.00
2018-10-03T20:44:45.285Z,101572.00
2018-10-03T20:47:15.289Z,101577.00
2018-10-03T20:49:44.519Z,101572.00
2018-10-03T20:52:14.318Z,101417.00
2018-10-03T21:22:23.802Z,101600.00
2018-10-03T21:24:53.125Z,101587.00
2018-10-03T21:27:24.151Z,101584.00
2018-10-03T21:29:53.670Z,101599.00
2018-10-03T21:35:27.137Z,101590.00
2018-10-03T21:37:57.080Z,101604.00
2018-10-03T21:40:56.022Z,101604.00
2018-10-03T21:43:25.373Z,101596.00
2018-10-03T21:45:54.973Z,101585.00
2018-10-03T22:08:32.190Z,101556.00
2018-10-03T22:14:36.786Z,101565.00
2018-10-03T22:20:06.298Z,101572.00
2018-10-03T22:22:49.412Z,101564.00
2018-10-03T22:25:33.032Z,101562.00
2018-10-03T22:34:12.715Z,101558.00
2018-10-03T22:37:02.578Z,101565.00
2018-10-03T22:40:13.234Z,101561.00
2018-10-03T22:43:04.046Z,101564.00
2018-10-03T22:48:37.247Z,101562.00
2018-10-03T22:51:25.308Z,101556.00
2018-10-03T22:53:55.110Z,101565.00
2018-10-03T22:56:24.584Z,101564.00
2018-10-03T23:02:12.973Z,101570.00
2018-10-03T23:07:46.564Z,101574.00
2018-10-03T23:10:42.212Z,101577.00
2018-10-03T23:13:11.521Z,101576.00
2018-10-03T23:16:44.340Z,101573.00
2018-10-03T23:19:14.068Z,101570.00
2018-10-03T23:21:55.220Z,101573.00
